Polfoss — V2PN7 — position and weather

sailwx.info

Track history (hours):
 
Tides and Currents Weather Stations Pressure Air Temp Water Temp Dewpoint Dewpoint Depression Visibility Wind Speed Wind Dir Waves Ship Positions

Polfoss

Last reported at 2017-Apr-26 09:31 UTC. Time now 2017-Apr-26 21:31 UTC.
Position N 53°15' E 001°15'.

Length 82 m; draft 6.2 m.

Type: Cargo ship. MMSI: 305081000.

Date/timePositionNaut miles runAvg speedWind from/ knotsBaromVisibWave heightAir tempDewpointWater temp
2017-Apr-26 09:31N 53°15' E 001°15'012.6
2017-Apr-26 09:30N 53°15' E 001°15'612.0
2017-Apr-26 09:00N 53°12' E 001°24'611.5
2017-Apr-26 08:30N 53°09' E 001°32'611.0
2017-Apr-26 08:00N 53°07' E 001°41'510.2
2017-Apr-26 07:30N 53°04' E 001°48'510.5
2017-Apr-26 07:00N 53°02' E 001°56'510.2
2017-Apr-26 06:30N 53°01' E 002°04'7412.1
2017-Apr-26 00:23N 52°31' E 003°57'512.5
2017-Apr-26 00:00N 52°31' E 004°05'612.6
2017-Apr-25 23:30N 52°31' E 004°15'612.6
2017-Apr-25 23:00N 52°29' E 004°25'611.3
2017-Apr-25 22:30N 52°28' E 004°34'1 2.7
2017-Apr-25 22:01N 52°28' E 004°36'2 4.5
2017-Apr-25 21:30N 52°28' E 004°40'0 0.5
2017-Apr-25 21:00N 52°28' E 004°40'0 0.0
2017-Apr-25 20:30N 52°28' E 004°40'0 0.0
2017-Apr-25 20:00N 52°28' E 004°40'0 0.0
2017-Apr-25 19:30N 52°28' E 004°40'0 0.0
2017-Apr-25 19:00N 52°28' E 004°40'0 0.0
2017-Apr-25 18:30N 52°28' E 004°40'0 0.0
2017-Apr-25 18:00N 52°28' E 004°40'0 0.0
2017-Apr-25 17:30N 52°28' E 004°40'0 0.0
2017-Apr-25 17:00N 52°28' E 004°40'0 0.0
2017-Apr-25 16:30N 52°28' E 004°40'0 0.0
2017-Apr-25 16:00N 52°28' E 004°40'0 0.0
2017-Apr-25 15:30N 52°28' E 004°40'0 0.0
2017-Apr-25 15:00N 52°28' E 004°40'0 0.0
2017-Apr-25 14:00N 52°28' E 004°40'0 0.0
2017-Apr-25 13:30N 52°28' E 004°40'0 0.0
2017-Apr-25 13:00N 52°28' E 004°40'0 0.0
2017-Apr-25 12:30N 52°28' E 004°40'0 0.0
2017-Apr-25 12:00N 52°28' E 004°40'0 0.0
2017-Apr-25 11:30N 52°28' E 004°40'0 0.0
2017-Apr-25 11:00N 52°28' E 004°40'0 0.0
2017-Apr-25 10:30N 52°28' E 004°40'0 0.0
2017-Apr-25 10:00N 52°28' E 004°40'0 0.0
2017-Apr-25 09:30N 52°28' E 004°40'0 0.0
2017-Apr-25 09:00N 52°28' E 004°40'0 0.0
2017-Apr-25 08:30N 52°28' E 004°40'0 0.0
2017-Apr-25 08:00N 52°28' E 004°40'0 0.0
2017-Apr-25 07:30N 52°28' E 004°40'0 0.0
2017-Apr-25 07:00N 52°28' E 004°40'0 0.0
2017-Apr-25 06:30N 52°28' E 004°40'0 0.0
2017-Apr-25 06:00N 52°28' E 004°40'0 0.0
2017-Apr-25 05:30N 52°28' E 004°40'0 0.0
2017-Apr-25 05:00N 52°28' E 004°40'0 0.0
2017-Apr-25 04:30N 52°28' E 004°40'0 0.0
2017-Apr-25 04:00N 52°28' E 004°40'0 0.0
2017-Apr-25 03:30N 52°28' E 004°40'0 0.4
2017-Apr-25 03:00N 52°28' E 004°40'2 4.6
2017-Apr-25 02:31N 52°28' E 004°36'0 0.9
2017-Apr-25 02:00N 52°28' E 004°35'4 7.4
2017-Apr-25 01:30N 52°30' E 004°30'612.1
2017-Apr-25 01:00N 52°36' E 004°30'612.8
2017-Apr-25 00:30N 52°42' E 004°30'713.8
2017-Apr-25 00:00N 52°49' E 004°29'714.2
2017-Apr-24 23:30N 52°56' E 004°30'714.5
2017-Apr-24 23:00N 53°03' E 004°31'7113.2
2017-Apr-24 17:38N 54°13' E 004°58'213.6
2017-Apr-24 17:28N 54°15' E 004°58'713.6
2017-Apr-24 16:56N 54°22' E 004°59'613.6
2017-Apr-24 16:30N 54°28' E 004°59'23413.4
2017-Apr-23 22:59N 58°22' E 005°14'613.1
2017-Apr-23 22:30N 58°28' E 005°14'713.2
2017-Apr-23 22:00N 58°35' E 005°14'713.4
2017-Apr-23 21:30N 58°42' E 005°16'713.6
2017-Apr-23 21:01N 58°48' E 005°16'714.1
2017-Apr-23 20:31N 58°55' E 005°17'713.6
2017-Apr-23 20:00N 59°02' E 005°19'713.8
2017-Apr-23 19:30N 59°09' E 005°20'713.9
2017-Apr-23 19:00N 59°16' E 005°20'4 8.3
2017-Apr-23 18:30N 59°20' E 005°18'0 0.0
2017-Apr-23 18:00N 59°20' E 005°18'0 1.0
2017-Apr-23 17:30N 59°20' E 005°19'510.6
2017-Apr-23 17:00N 59°25' E 005°15'713.2
2017-Apr-23 16:30N 59°31' E 005°12'713.7
2017-Apr-23 16:00N 59°38' E 005°18'714.0
2017-Apr-23 15:30N 59°43' E 005°27'713.4
2017-Apr-23 15:00N 59°49' E 005°33'1313.0
2017-Apr-23 14:00N 60°00' E 005°20'714.0
2017-Apr-23 13:30N 60°07' E 005°17'713.9
2017-Apr-23 13:00N 60°13' E 005°11'713.3
2017-Apr-23 12:30N 60°20' E 005°12'612.7
2017-Apr-23 12:00N 60°25' E 005°04'713.9
2017-Apr-23 11:30N 60°31' E 004°57'714.0
2017-Apr-23 11:00N 60°37' E 004°53'713.7
2017-Apr-23 10:30N 60°44' E 004°48'713.7
2017-Apr-23 10:01N 60°50' E 004°44'713.4
2017-Apr-23 09:30N 60°57' E 004°45'714.0
2017-Apr-23 09:00N 61°04' E 004°43'713.7
2017-Apr-23 08:30N 61°11' E 004°44'612.8
2017-Apr-23 08:01N 61°17' E 004°47'714.2
2017-Apr-23 07:30N 61°24' E 004°50'713.7
2017-Apr-23 06:59N 61°30' E 004°59'612.6
2017-Apr-23 06:30N 61°36' E 004°57'713.3
2017-Apr-23 06:00N 61°42' E 004°57'713.6
2017-Apr-23 05:30N 61°48' E 005°06'612.1
2017-Apr-23 05:00N 61°52' E 005°16'611.5
2017-Apr-23 04:30N 61°56' E 005°08'713.2
2017-Apr-23 04:00N 62°03' E 005°08'713.9
2017-Apr-23 03:30N 62°10' E 005°04'612.8
2017-Apr-23 03:00N 62°16' E 005°06'613.1
2017-Apr-23 02:30N 62°21' E 005°14'613.0
2017-Apr-23 02:00N 62°25' E 005°25'612.7
2017-Apr-23 01:30N 62°29' E 005°36'511.0
2017-Apr-23 01:00N 62°29' E 005°48'612.0
2017-Apr-23 00:30N 62°27' E 006°01'613.1
2017-Apr-23 00:00N 62°29' E 006°14'2 3.6
2017-Apr-22 23:30N 62°29' E 006°18'0 0.0
2017-Apr-22 23:00N 62°29' E 006°18'0 0.0
2017-Apr-22 22:30N 62°29' E 006°18'0 0.0
2017-Apr-22 22:00N 62°29' E 006°18'0 0.0
2017-Apr-22 21:30N 62°29' E 006°18'0 0.0
2017-Apr-22 20:59N 62°29' E 006°18'0 0.0
2017-Apr-22 20:30N 62°29' E 006°18'1 1.1
2017-Apr-22 20:00N 62°29' E 006°17'2 3.3
2017-Apr-22 19:30N 62°29' E 006°14'0 0.0
2017-Apr-22 19:00N 62°29' E 006°14'0 0.0
2017-Apr-22 18:29N 62°29' E 006°14'0 0.0
2017-Apr-22 18:00N 62°29' E 006°14'0 0.0
2017-Apr-22 17:30N 62°29' E 006°14'1 1.8
2017-Apr-22 17:00N 62°29' E 006°12'2 4.4
2017-Apr-22 16:30N 62°27' E 006°10'1 2.3
2017-Apr-22 16:00N 62°28' E 006°08'0 0.0
2017-Apr-22 15:30N 62°28' E 006°08'0 0.0
2017-Apr-22 15:00N 62°28' E 006°08'0 0.0
2017-Apr-22 14:30N 62°28' E 006°08'0 0.0
2017-Apr-22 13:30N 62°28' E 006°08'1 2.5
2017-Apr-22 13:00N 62°28' E 006°11'1 2.9
2017-Apr-22 12:30N 62°29' E 006°10'5 9.4
2017-Apr-22 11:59N 62°28' E 006°21'0 0.0
2017-Apr-22 11:30N 62°28' E 006°21'0 0.0
2017-Apr-22 11:00N 62°28' E 006°21'0 0.0
2017-Apr-22 10:30N 62°28' E 006°21'0 0.0
2017-Apr-22 10:00N 62°28' E 006°21'1 1.5
2017-Apr-22 09:30N 62°29' E 006°19'510.5
2017-Apr-22 09:00N 62°31' E 006°09'713.7
2017-Apr-22 08:30N 62°37' E 006°17'713.7
2017-Apr-22 08:00N 62°42' E 006°27'714.3
2017-Apr-22 07:31N 62°48' E 006°36'714.0
2017-Apr-22 07:00N 62°53' E 006°44'713.0
2017-Apr-22 06:30N 62°59' E 006°53'612.5
2017-Apr-22 06:00N 63°01' E 007°06'612.5
2017-Apr-22 05:30N 63°03' E 007°18'612.7
2017-Apr-22 05:00N 63°06' E 007°31'612.7
2017-Apr-22 04:30N 63°10' E 007°43'713.2
2017-Apr-22 04:00N 63°13' E 007°55'713.7
2017-Apr-22 03:30N 63°16' E 008°08'713.7
2017-Apr-22 03:00N 63°21' E 008°20'713.5
2017-Apr-22 02:29N 63°24' E 008°33'713.5
2017-Apr-22 02:00N 63°27' E 008°47'713.5
2017-Apr-22 01:31N 63°29' E 009°01'713.1
2017-Apr-22 01:00N 63°32' E 009°14'713.4
2017-Apr-22 00:30N 63°36' E 009°27'714.1
2017-Apr-22 00:00N 63°43' E 009°31'714.1
2017-Apr-21 23:30N 63°49' E 009°36'714.2
2017-Apr-21 23:00N 63°55' E 009°47'714.1
2017-Apr-21 22:30N 64°02' E 009°47'713.7
2017-Apr-21 22:00N 64°06' E 009°59'713.7
2017-Apr-21 21:30N 64°11' E 010°09'612.7
2017-Apr-21 21:00N 64°16' E 010°19'612.2
2017-Apr-21 20:30N 64°21' E 010°26'613.0
2017-Apr-21 20:00N 64°28' E 010°27'611.6
2017-Apr-21 19:30N 64°33' E 010°33'612.8
2017-Apr-21 19:00N 64°38' E 010°42'713.6
2017-Apr-21 18:30N 64°43' E 010°53'714.2
2017-Apr-21 18:00N 64°48' E 011°05'611.3
2017-Apr-21 17:30N 64°52' E 011°14'2 3.4
2017-Apr-21 17:00N 64°53' E 011°18'713.7
2017-Apr-21 16:30N 64°57' E 011°30'713.3
2017-Apr-21 16:01N 65°01' E 011°42'714.2
2017-Apr-21 15:30N 65°08' E 011°49'714.1
2017-Apr-21 15:00N 65°14' E 011°55'714.3
2017-Apr-21 14:30N 65°21' E 012°03'1211.8
2017-Apr-21 13:30N 65°33' E 012°03'714.0
2017-Apr-21 13:00N 65°39' E 012°13'714.3
2017-Apr-21 12:30N 65°45' E 012°18'714.2
2017-Apr-21 12:00N 65°52' E 012°22'713.9
2017-Apr-21 11:29N 65°59' E 012°29'713.9
2017-Apr-21 11:00N 66°04' E 012°39'713.6
2017-Apr-21 10:30N 66°09' E 012°49'714.0
2017-Apr-21 10:00N 66°16' E 012°55'714.2
2017-Apr-21 09:30N 66°23' E 012°58'714.3
2017-Apr-21 09:00N 66°30' E 012°58'611.5
2017-Apr-21 08:31N 66°35' E 013°04'714.1
2017-Apr-21 08:00N 66°42' E 013°09'713.9
2017-Apr-21 07:30N 66°49' E 013°16'612.4
2017-Apr-21 07:01N 66°54' E 013°25'611.0
2017-Apr-21 06:30N 66°58' E 013°33'611.8
2017-Apr-21 06:00N 67°02' E 013°46'612.2
2017-Apr-21 05:30N 67°06' E 013°57'611.9
2017-Apr-21 05:00N 67°11' E 014°04'612.3
2017-Apr-21 04:30N 67°16' E 014°13'612.5
2017-Apr-21 04:00N 67°21' E 014°22'612.7
2017-Apr-21 03:30N 67°27' E 014°28'713.3
2017-Apr-21 03:00N 67°33' E 014°21'713.6
2017-Apr-21 02:30N 67°39' E 014°11'612.2
2017-Apr-21 02:00N 67°45' E 014°06'611.3
2017-Apr-21 01:30N 67°50' E 014°01'611.0
2017-Apr-21 01:00N 67°56' E 013°57'510.6
2017-Apr-21 00:30N 68°01' E 013°53'510.5
2017-Apr-21 00:00N 68°06' E 013°50'1 2.7
2017-Apr-20 23:30N 68°07' E 013°50'0 0.0
2017-Apr-20 23:00N 68°07' E 013°50'0 0.0
2017-Apr-20 22:30N 68°07' E 013°50'0 0.0
2017-Apr-20 22:00N 68°07' E 013°50'0 0.0
2017-Apr-20 21:29N 68°07' E 013°50'0 0.7
2017-Apr-20 21:00N 68°07' E 013°50'2 3.0
2017-Apr-20 20:30N 68°06' E 013°54'2 3.2
2017-Apr-20 20:00N 68°07' E 013°50'0 0.3
2017-Apr-20 19:30N 68°07' E 013°50'1 1.4
2017-Apr-20 19:00N 68°06' E 013°50'510.9
2017-Apr-20 18:30N 68°09' E 014°04'611.5
2017-Apr-20 18:00N 68°14' E 014°10'611.8
2017-Apr-20 17:29N 68°19' E 014°17'612.3
2017-Apr-20 17:00N 68°25' E 014°23'612.0
2017-Apr-20 16:30N 68°28' E 014°37'5 9.1
2017-Apr-20 16:00N 68°30' E 014°48'0 0.1
2017-Apr-20 15:30N 68°30' E 014°48'0 0.0
2017-Apr-20 15:00N 68°30' E 014°48'0 0.0
2017-Apr-20 14:29N 68°30' E 014°48'0 0.0
2017-Apr-20 13:30N 68°30' E 014°48'0 0.0
2017-Apr-20 13:00N 68°30' E 014°48'4 7.5
2017-Apr-20 12:30N 68°30' E 014°58'713.2
2017-Apr-20 12:00N 68°35' E 015°11'612.8
2017-Apr-20 11:30N 68°39' E 015°24'3 6.1
2017-Apr-20 11:00N 68°42' E 015°25'0 0.0
2017-Apr-20 10:30N 68°42' E 015°25'0 0.0
2017-Apr-20 10:00N 68°42' E 015°25'0 0.0
2017-Apr-20 09:29N 68°42' E 015°25'0 0.7
2017-Apr-20 09:00N 68°42' E 015°26'3 5.6
2017-Apr-20 08:30N 68°44' E 015°31'0 0.0
2017-Apr-20 08:00N 68°44' E 015°31'0 0.0
2017-Apr-20 07:29N 68°44' E 015°31'0 0.9
2017-Apr-20 07:00N 68°44' E 015°30'611.8
2017-Apr-20 06:30N 68°50' E 015°28'713.6
2017-Apr-20 06:00N 68°56' E 015°36'4 8.6
2017-Apr-20 05:30N 68°59' E 015°45'713.6
2017-Apr-20 05:00N 68°58' E 016°04'714.2
2017-Apr-20 04:30N 68°54' E 016°21'612.4
2017-Apr-20 04:00N 68°53' E 016°39'613.1
2017-Apr-20 03:30N 68°57' E 016°53'612.6
2017-Apr-20 03:00N 68°59' E 017°09'713.1
2017-Apr-20 02:30N 69°04' E 017°22'714.0
2017-Apr-20 02:00N 69°08' E 017°38'714.0
2017-Apr-20 01:30N 69°10' E 017°57'510.3
2017-Apr-20 01:00N 69°15' E 017°58'612.2
2017-Apr-20 00:30N 69°21' E 018°05'3 6.5
2017-Apr-19 23:59N 69°24' E 018°09'0 0.0
2017-Apr-19 23:30N 69°24' E 018°09'3 6.0
2017-Apr-19 23:00N 69°27' E 018°07'612.4
2017-Apr-19 22:30N 69°30' E 018°21'714.3
2017-Apr-19 22:00N 69°33' E 018°40'713.6
2017-Apr-19 21:30N 69°37' E 018°55'2 4.8
2017-Apr-19 21:00N 69°39' E 018°58'0 0.0
2017-Apr-19 20:30N 69°39' E 018°58'0 0.0
2017-Apr-19 20:00N 69°39' E 018°58'0 0.0
2017-Apr-19 19:30N 69°39' E 018°58'0 0.0
2017-Apr-19 19:00N 69°39' E 018°58'0 0.0
2017-Apr-19 18:30N 69°39' E 018°58'0 0.0
2017-Apr-19 18:00N 69°39' E 018°58'0 0.5
2017-Apr-19 17:30N 69°40' E 018°59'0 0.2
2017-Apr-19 17:00N 69°39' E 018°59'0 0.4
2017-Apr-19 16:30N 69°40' E 018°58'0 0.0
2017-Apr-19 16:00N 69°40' E 018°58'0 0.0
2017-Apr-19 15:30N 69°40' E 018°58'0 0.0
2017-Apr-19 15:00N 69°40' E 018°58'1 1.4
2017-Apr-19 14:30N 69°39' E 018°58'1 1.2
2017-Apr-19 13:30N 69°38' E 018°57'0 0.1
2017-Apr-19 13:00N 69°38' E 018°57'0 0.0
2017-Apr-19 12:30N 69°38' E 018°57'0 0.0
2017-Apr-19 12:00N 69°38' E 018°57'0 0.0
2017-Apr-19 11:30N 69°38' E 018°57'0 0.0
2017-Apr-19 11:00N 69°38' E 018°57'0 0.0
2017-Apr-19 10:30N 69°38' E 018°57'0 0.0
2017-Apr-19 10:00N 69°38' E 018°57'0 0.0
2017-Apr-19 09:30N 69°38' E 018°57'0 0.1
2017-Apr-19 09:00N 69°38' E 018°57'0 0.0
2017-Apr-19 08:30N 69°38' E 018°57'0 0.0
2017-Apr-19 08:00N 69°38' E 018°57'0 0.0
2017-Apr-19 07:30N 69°38' E 018°57'0 0.0
2017-Apr-19 07:00N 69°38' E 018°57'0 0.0
2017-Apr-19 06:29N 69°38' E 018°57'0 0.0
2017-Apr-19 05:59N 69°38' E 018°57'1 1.3
2017-Apr-19 05:30N 69°38' E 018°57'612.4
2017-Apr-19 05:00N 69°44' E 019°03'612.8
2017-Apr-19 04:30N 69°48' E 019°19'713.9
2017-Apr-19 04:00N 69°50' E 019°37'713.8
2017-Apr-19 03:30N 69°54' E 019°54'714.1
2017-Apr-19 03:00N 69°58' E 020°10'713.2
2017-Apr-19 02:30N 70°01' E 020°29'713.5
2017-Apr-19 02:00N 70°03' E 020°48'613.3
2017-Apr-19 01:30N 70°08' E 021°00'714.0
2017-Apr-19 01:00N 70°14' E 021°09'713.2
2017-Apr-19 00:30N 70°18' E 021°25'713.8
2017-Apr-19 00:00N 70°23' E 021°39'611.9
2017-Apr-18 23:30N 70°25' E 021°55'612.4
2017-Apr-18 23:00N 70°27' E 022°13'612.9
2017-Apr-18 22:30N 70°28' E 022°32'713.8
2017-Apr-18 22:00N 70°30' E 022°52'713.5
2017-Apr-18 21:30N 70°34' E 023°07'713.7
2017-Apr-18 21:00N 70°39' E 023°22'713.7
2017-Apr-18 20:30N 70°44' E 023°36'713.3
2017-Apr-18 20:00N 70°49' E 023°50'613.2
2017-Apr-18 19:30N 70°53' E 024°05'713.1
2017-Apr-18 19:00N 70°58' E 024°20'612.7
2017-Apr-18 18:30N 71°02' E 024°36'612.4
2017-Apr-18 17:59N 70°60' E 024°54'612.9
2017-Apr-18 17:30N 70°59' E 025°13'611.6
2017-Apr-18 17:00N 70°57' E 025°29'611.5
2017-Apr-18 16:30N 70°56' E 025°47'713.7
2017-Apr-18 16:00N 70°58' E 026°07'713.8
2017-Apr-18 15:30N 71°00' E 026°27'713.5
2017-Apr-18 15:00N 71°02' E 026°47'612.9
2017-Apr-18 14:30N 71°05' E 027°05'1312.8
2017-Apr-18 13:30N 71°09' E 027°43'613.0
2017-Apr-18 13:00N 71°08' E 028°03'713.1
2017-Apr-18 12:30N 71°06' E 028°21'713.4
2017-Apr-18 12:00N 71°02' E 028°39'713.5
2017-Apr-18 11:30N 70°59' E 028°57'713.8
2017-Apr-18 11:00N 70°55' E 029°15'713.6
2017-Apr-18 10:30N 70°51' E 029°32'713.7
2017-Apr-18 10:00N 70°47' E 029°49'713.4
2017-Apr-18 09:30N 70°44' E 030°07'713.2
2017-Apr-18 09:00N 70°40' E 030°22'713.4
2017-Apr-18 08:30N 70°35' E 030°37'713.4
2017-Apr-18 08:00N 70°31' E 030°51'713.3
2017-Apr-18 07:30N 70°25' E 031°02'713.7
2017-Apr-18 07:00N 70°18' E 031°06'714.0
2017-Apr-18 06:30N 70°12' E 030°56'714.6
2017-Apr-18 06:00N 70°07' E 030°42'714.7
2017-Apr-18 05:30N 70°01' E 030°28'814.9
2017-Apr-18 05:00N 69°55' E 030°14'714.7
2017-Apr-18 04:31N 69°49' E 030°06'5 9.9
2017-Apr-18 04:00N 69°44' E 030°04'0 0.0
2017-Apr-18 03:30N 69°44' E 030°04'0 0.0
2017-Apr-18 03:00N 69°44' E 030°04'0 0.0
2017-Apr-18 02:30N 69°44' E 030°04'0 0.0
2017-Apr-18 02:00N 69°44' E 030°04'0 0.0
2017-Apr-18 01:30N 69°44' E 030°04'0 0.0
2017-Apr-18 01:00N 69°44' E 030°04'0 0.0
2017-Apr-18 00:30N 69°44' E 030°04'0 0.0
2017-Apr-18 00:00N 69°44' E 030°04'0 0.0
2017-Apr-17 23:31N 69°44' E 030°04'0 0.0
2017-Apr-17 23:01N 69°44' E 030°04'0 0.0
2017-Apr-17 22:30N 69°44' E 030°04'0 0.0
2017-Apr-17 22:01N 69°44' E 030°04'4 7.1
2017-Apr-17 21:30N 69°47' E 030°06'713.5
2017-Apr-17 21:00N 69°54' E 030°11'714.4
2017-Apr-17 20:30N 69°60' E 030°24'714.5
2017-Apr-17 20:00N 70°05' E 030°37'714.5
2017-Apr-17 19:30N 70°11' E 030°50'714.6
2017-Apr-17 19:00N 70°16' E 031°04'510.7
2017-Apr-17 18:30N 70°22' E 031°02'0 0.0
2017-Apr-17 18:00N 70°22' E 031°02'0 0.1
2017-Apr-17 17:30N 70°22' E 031°02'4 7.3
2017-Apr-17 17:00N 70°25' E 031°01'714.5
2017-Apr-17 16:30N 70°31' E 030°47'714.6
2017-Apr-17 16:00N 70°36' E 030°31'714.4
2017-Apr-17 15:30N 70°41' E 030°16'713.1
2017-Apr-17 15:00N 70°43' E 029°57'7 6.6
2017-Apr-17 14:00N 70°38' E 029°43'0 0.0
2017-Apr-17 13:30N 70°38' E 029°43'0 0.0
2017-Apr-17 12:59N 70°38' E 029°43'0 0.0
2017-Apr-17 12:30N 70°38' E 029°43'0 0.0
2017-Apr-17 12:00N 70°38' E 029°43'0 0.0
2017-Apr-17 11:30N 70°38' E 029°43'0 0.0
2017-Apr-17 11:00N 70°38' E 029°43'0 0.0
2017-Apr-17 10:29N 70°38' E 029°43'0 0.0
2017-Apr-17 09:59N 70°38' E 029°43'0 0.0
2017-Apr-17 09:28N 70°38' E 029°43'0 0.0
2017-Apr-17 09:00N 70°38' E 029°43'0 0.0
2017-Apr-17 08:29N 70°38' E 029°43'0 0.0
2017-Apr-17 08:00N 70°38' E 029°43'0 0.0
2017-Apr-17 07:30N 70°38' E 029°43'0 0.0
2017-Apr-17 07:00N 70°38' E 029°43'0 0.0
2017-Apr-17 06:30N 70°38' E 029°43'0 0.0
2017-Apr-17 06:00N 70°38' E 029°43'0 0.0
2017-Apr-17 05:30N 70°38' E 029°43'0 0.0
2017-Apr-17 04:59N 70°38' E 029°43'0 0.0
2017-Apr-17 04:30N 70°38' E 029°43'0 0.0
2017-Apr-17 04:00N 70°38' E 029°43'0 0.0
2017-Apr-17 03:30N 70°38' E 029°43'0 0.0
2017-Apr-17 02:59N 70°38' E 029°43'0 0.0
2017-Apr-17 02:30N 70°38' E 029°43'0 0.0
2017-Apr-17 02:00N 70°38' E 029°43'0 0.0
2017-Apr-17 01:29N 70°38' E 029°43'0 0.0
2017-Apr-17 01:00N 70°38' E 029°43'0 0.0
2017-Apr-17 00:29N 70°38' E 029°43'0 0.0
2017-Apr-16 23:59N 70°38' E 029°43'0 0.0
2017-Apr-16 23:30N 70°38' E 029°43'0 0.0
2017-Apr-16 22:59N 70°38' E 029°43'0 0.0
2017-Apr-16 22:29N 70°38' E 029°43'0 0.0
2017-Apr-16 22:00N 70°38' E 029°43'0 0.0
2017-Apr-16 21:30N 70°38' E 029°43'2 3.5
2017-Apr-16 21:00N 70°39' E 029°47'713.2
2017-Apr-16 20:30N 70°45' E 029°43'815.5
2017-Apr-16 20:00N 70°50' E 029°24'815.5
2017-Apr-16 19:30N 70°55' E 029°05'815.2
2017-Apr-16 19:00N 70°59' E 028°47'815.5
2017-Apr-16 18:30N 71°04' E 028°28'815.3
2017-Apr-16 18:00N 71°08' E 028°07'815.5
2017-Apr-16 17:30N 71°08' E 027°43'815.5
2017-Apr-16 17:00N 71°06' E 027°21'815.2
2017-Apr-16 16:30N 71°04' E 026°59'815.0
2017-Apr-16 16:00N 71°01' E 026°37'714.8
2017-Apr-16 15:30N 70°59' E 026°15'815.0
2017-Apr-16 15:00N 70°57' E 025°53'714.9
2017-Apr-16 14:30N 70°56' E 025°30'1515.0
2017-Apr-16 13:30N 71°01' E 024°46'613.1
2017-Apr-16 13:00N 70°60' E 024°26'714.5
2017-Apr-16 12:30N 70°55' E 024°10'714.6
2017-Apr-16 12:00N 70°50' E 023°53'714.6
2017-Apr-16 11:30N 70°45' E 023°38'714.0
2017-Apr-16 11:00N 70°38' E 023°35'1 2.3
2017-Apr-16 10:30N 70°38' E 023°39'0 0.0
2017-Apr-16 09:59N 70°38' E 023°39'  
Track history (hours):
 
Tides and Currents Weather Stations Pressure Air Temp Water Temp Dewpoint Dewpoint Depression Visibility Wind Speed Wind Dir Waves Ship Positions

Polfoss

Last reported at 2017-Apr-26 09:31 UTC. Time now 2017-Apr-26 21:31 UTC.
Position N 53°15' E 001°15'.

Length 82 m; draft 6.2 m.

Type: Cargo ship. MMSI: 305081000.

Date/timePositionNaut miles runAvg speedWind from/ knotsBaromVisibWave heightAir tempDewpointWater temp
2017-Apr-26 09:31N 53°15' E 001°15'012.6
2017-Apr-26 09:30N 53°15' E 001°15'612.0
2017-Apr-26 09:00N 53°12' E 001°24'611.5
2017-Apr-26 08:30N 53°09' E 001°32'611.0
2017-Apr-26 08:00N 53°07' E 001°41'510.2
2017-Apr-26 07:30N 53°04' E 001°48'510.5
2017-Apr-26 07:00N 53°02' E 001°56'510.2
2017-Apr-26 06:30N 53°01' E 002°04'7412.1
2017-Apr-26 00:23N 52°31' E 003°57'512.5
2017-Apr-26 00:00N 52°31' E 004°05'612.6
2017-Apr-25 23:30N 52°31' E 004°15'612.6
2017-Apr-25 23:00N 52°29' E 004°25'611.3
2017-Apr-25 22:30N 52°28' E 004°34'1 2.7
2017-Apr-25 22:01N 52°28' E 004°36'2 4.5
2017-Apr-25 21:30N 52°28' E 004°40'0 0.5
2017-Apr-25 21:00N 52°28' E 004°40'0 0.0
2017-Apr-25 20:30N 52°28' E 004°40'0 0.0
2017-Apr-25 20:00N 52°28' E 004°40'0 0.0
2017-Apr-25 19:30N 52°28' E 004°40'0 0.0
2017-Apr-25 19:00N 52°28' E 004°40'0 0.0
2017-Apr-25 18:30N 52°28' E 004°40'0 0.0
2017-Apr-25 18:00N 52°28' E 004°40'0 0.0
2017-Apr-25 17:30N 52°28' E 004°40'0 0.0
2017-Apr-25 17:00N 52°28' E 004°40'0 0.0
2017-Apr-25 16:30N 52°28' E 004°40'0 0.0
2017-Apr-25 16:00N 52°28' E 004°40'0 0.0
2017-Apr-25 15:30N 52°28' E 004°40'0 0.0
2017-Apr-25 15:00N 52°28' E 004°40'0 0.0
2017-Apr-25 14:00N 52°28' E 004°40'0 0.0
2017-Apr-25 13:30N 52°28' E 004°40'0 0.0
2017-Apr-25 13:00N 52°28' E 004°40'0 0.0
2017-Apr-25 12:30N 52°28' E 004°40'0 0.0
2017-Apr-25 12:00N 52°28' E 004°40'0 0.0
2017-Apr-25 11:30N 52°28' E 004°40'0 0.0
2017-Apr-25 11:00N 52°28' E 004°40'0 0.0
2017-Apr-25 10:30N 52°28' E 004°40'0 0.0
2017-Apr-25 10:00N 52°28' E 004°40'0 0.0
2017-Apr-25 09:30N 52°28' E 004°40'0 0.0
2017-Apr-25 09:00N 52°28' E 004°40'0 0.0
2017-Apr-25 08:30N 52°28' E 004°40'0 0.0
2017-Apr-25 08:00N 52°28' E 004°40'0 0.0
2017-Apr-25 07:30N 52°28' E 004°40'0 0.0
2017-Apr-25 07:00N 52°28' E 004°40'0 0.0
2017-Apr-25 06:30N 52°28' E 004°40'0 0.0
2017-Apr-25 06:00N 52°28' E 004°40'0 0.0
2017-Apr-25 05:30N 52°28' E 004°40'0 0.0
2017-Apr-25 05:00N 52°28' E 004°40'0 0.0
2017-Apr-25 04:30N 52°28' E 004°40'0 0.0
2017-Apr-25 04:00N 52°28' E 004°40'0 0.0
2017-Apr-25 03:30N 52°28' E 004°40'0 0.4
2017-Apr-25 03:00N 52°28' E 004°40'2 4.6
2017-Apr-25 02:31N 52°28' E 004°36'0 0.9
2017-Apr-25 02:00N 52°28' E 004°35'4 7.4
2017-Apr-25 01:30N 52°30' E 004°30'612.1
2017-Apr-25 01:00N 52°36' E 004°30'612.8
2017-Apr-25 00:30N 52°42' E 004°30'713.8
2017-Apr-25 00:00N 52°49' E 004°29'714.2
2017-Apr-24 23:30N 52°56' E 004°30'714.5
2017-Apr-24 23:00N 53°03' E 004°31'7113.2
2017-Apr-24 17:38N 54°13' E 004°58'213.6
2017-Apr-24 17:28N 54°15' E 004°58'713.6
2017-Apr-24 16:56N 54°22' E 004°59'613.6
2017-Apr-24 16:30N 54°28' E 004°59'23413.4
2017-Apr-23 22:59N 58°22' E 005°14'613.1
2017-Apr-23 22:30N 58°28' E 005°14'713.2
2017-Apr-23 22:00N 58°35' E 005°14'713.4
2017-Apr-23 21:30N 58°42' E 005°16'713.6
2017-Apr-23 21:01N 58°48' E 005°16'714.1
2017-Apr-23 20:31N 58°55' E 005°17'713.6
2017-Apr-23 20:00N 59°02' E 005°19'713.8
2017-Apr-23 19:30N 59°09' E 005°20'713.9
2017-Apr-23 19:00N 59°16' E 005°20'4 8.3
2017-Apr-23 18:30N 59°20' E 005°18'0 0.0
2017-Apr-23 18:00N 59°20' E 005°18'0 1.0
2017-Apr-23 17:30N 59°20' E 005°19'510.6
2017-Apr-23 17:00N 59°25' E 005°15'713.2
2017-Apr-23 16:30N 59°31' E 005°12'713.7
2017-Apr-23 16:00N 59°38' E 005°18'714.0
2017-Apr-23 15:30N 59°43' E 005°27'713.4
2017-Apr-23 15:00N 59°49' E 005°33'1313.0
2017-Apr-23 14:00N 60°00' E 005°20'714.0
2017-Apr-23 13:30N 60°07' E 005°17'713.9
2017-Apr-23 13:00N 60°13' E 005°11'713.3
2017-Apr-23 12:30N 60°20' E 005°12'612.7
2017-Apr-23 12:00N 60°25' E 005°04'713.9
2017-Apr-23 11:30N 60°31' E 004°57'714.0
2017-Apr-23 11:00N 60°37' E 004°53'713.7
2017-Apr-23 10:30N 60°44' E 004°48'713.7
2017-Apr-23 10:01N 60°50' E 004°44'713.4
2017-Apr-23 09:30N 60°57' E 004°45'714.0
2017-Apr-23 09:00N 61°04' E 004°43'713.7
2017-Apr-23 08:30N 61°11' E 004°44'612.8
2017-Apr-23 08:01N 61°17' E 004°47'714.2
2017-Apr-23 07:30N 61°24' E 004°50'713.7
2017-Apr-23 06:59N 61°30' E 004°59'612.6
2017-Apr-23 06:30N 61°36' E 004°57'713.3
2017-Apr-23 06:00N 61°42' E 004°57'713.6
2017-Apr-23 05:30N 61°48' E 005°06'612.1
2017-Apr-23 05:00N 61°52' E 005°16'611.5
2017-Apr-23 04:30N 61°56' E 005°08'713.2
2017-Apr-23 04:00N 62°03' E 005°08'713.9
2017-Apr-23 03:30N 62°10' E 005°04'612.8
2017-Apr-23 03:00N 62°16' E 005°06'613.1
2017-Apr-23 02:30N 62°21' E 005°14'613.0
2017-Apr-23 02:00N 62°25' E 005°25'612.7
2017-Apr-23 01:30N 62°29' E 005°36'511.0
2017-Apr-23 01:00N 62°29' E 005°48'612.0
2017-Apr-23 00:30N 62°27' E 006°01'613.1
2017-Apr-23 00:00N 62°29' E 006°14'2 3.6
2017-Apr-22 23:30N 62°29' E 006°18'0 0.0
2017-Apr-22 23:00N 62°29' E 006°18'0 0.0
2017-Apr-22 22:30N 62°29' E 006°18'0 0.0
2017-Apr-22 22:00N 62°29' E 006°18'0 0.0
2017-Apr-22 21:30N 62°29' E 006°18'0 0.0
2017-Apr-22 20:59N 62°29' E 006°18'0 0.0
2017-Apr-22 20:30N 62°29' E 006°18'1 1.1
2017-Apr-22 20:00N 62°29' E 006°17'2 3.3
2017-Apr-22 19:30N 62°29' E 006°14'0 0.0
2017-Apr-22 19:00N 62°29' E 006°14'0 0.0
2017-Apr-22 18:29N 62°29' E 006°14'0 0.0
2017-Apr-22 18:00N 62°29' E 006°14'0 0.0
2017-Apr-22 17:30N 62°29' E 006°14'1 1.8
2017-Apr-22 17:00N 62°29' E 006°12'2 4.4
2017-Apr-22 16:30N 62°27' E 006°10'1 2.3
2017-Apr-22 16:00N 62°28' E 006°08'0 0.0
2017-Apr-22 15:30N 62°28' E 006°08'0 0.0
2017-Apr-22 15:00N 62°28' E 006°08'0 0.0
2017-Apr-22 14:30N 62°28' E 006°08'0 0.0
2017-Apr-22 13:30N 62°28' E 006°08'1 2.5
2017-Apr-22 13:00N 62°28' E 006°11'1 2.9
2017-Apr-22 12:30N 62°29' E 006°10'5 9.4
2017-Apr-22 11:59N 62°28' E 006°21'0 0.0
2017-Apr-22 11:30N 62°28' E 006°21'0 0.0
2017-Apr-22 11:00N 62°28' E 006°21'0 0.0
2017-Apr-22 10:30N 62°28' E 006°21'0 0.0
2017-Apr-22 10:00N 62°28' E 006°21'1 1.5
2017-Apr-22 09:30N 62°29' E 006°19'510.5
2017-Apr-22 09:00N 62°31' E 006°09'713.7
2017-Apr-22 08:30N 62°37' E 006°17'713.7
2017-Apr-22 08:00N 62°42' E 006°27'714.3
2017-Apr-22 07:31N 62°48' E 006°36'714.0
2017-Apr-22 07:00N 62°53' E 006°44'713.0
2017-Apr-22 06:30N 62°59' E 006°53'612.5
2017-Apr-22 06:00N 63°01' E 007°06'612.5
2017-Apr-22 05:30N 63°03' E 007°18'612.7
2017-Apr-22 05:00N 63°06' E 007°31'612.7
2017-Apr-22 04:30N 63°10' E 007°43'713.2
2017-Apr-22 04:00N 63°13' E 007°55'713.7
2017-Apr-22 03:30N 63°16' E 008°08'713.7
2017-Apr-22 03:00N 63°21' E 008°20'713.5
2017-Apr-22 02:29N 63°24' E 008°33'713.5
2017-Apr-22 02:00N 63°27' E 008°47'713.5
2017-Apr-22 01:31N 63°29' E 009°01'713.1
2017-Apr-22 01:00N 63°32' E 009°14'713.4
2017-Apr-22 00:30N 63°36' E 009°27'714.1
2017-Apr-22 00:00N 63°43' E 009°31'714.1
2017-Apr-21 23:30N 63°49' E 009°36'714.2
2017-Apr-21 23:00N 63°55' E 009°47'714.1
2017-Apr-21 22:30N 64°02' E 009°47'713.7
2017-Apr-21 22:00N 64°06' E 009°59'713.7
2017-Apr-21 21:30N 64°11' E 010°09'612.7
2017-Apr-21 21:00N 64°16' E 010°19'612.2
2017-Apr-21 20:30N 64°21' E 010°26'613.0
2017-Apr-21 20:00N 64°28' E 010°27'611.6
2017-Apr-21 19:30N 64°33' E 010°33'612.8
2017-Apr-21 19:00N 64°38' E 010°42'713.6
2017-Apr-21 18:30N 64°43' E 010°53'714.2
2017-Apr-21 18:00N 64°48' E 011°05'611.3
2017-Apr-21 17:30N 64°52' E 011°14'2 3.4
2017-Apr-21 17:00N 64°53' E 011°18'713.7
2017-Apr-21 16:30N 64°57' E 011°30'713.3
2017-Apr-21 16:01N 65°01' E 011°42'714.2
2017-Apr-21 15:30N 65°08' E 011°49'714.1
2017-Apr-21 15:00N 65°14' E 011°55'714.3
2017-Apr-21 14:30N 65°21' E 012°03'1211.8
2017-Apr-21 13:30N 65°33' E 012°03'714.0
2017-Apr-21 13:00N 65°39' E 012°13'714.3
2017-Apr-21 12:30N 65°45' E 012°18'714.2
2017-Apr-21 12:00N 65°52' E 012°22'713.9
2017-Apr-21 11:29N 65°59' E 012°29'713.9
2017-Apr-21 11:00N 66°04' E 012°39'713.6
2017-Apr-21 10:30N 66°09' E 012°49'714.0
2017-Apr-21 10:00N 66°16' E 012°55'714.2
2017-Apr-21 09:30N 66°23' E 012°58'714.3
2017-Apr-21 09:00N 66°30' E 012°58'611.5
2017-Apr-21 08:31N 66°35' E 013°04'714.1
2017-Apr-21 08:00N 66°42' E 013°09'713.9
2017-Apr-21 07:30N 66°49' E 013°16'612.4
2017-Apr-21 07:01N 66°54' E 013°25'611.0
2017-Apr-21 06:30N 66°58' E 013°33'611.8
2017-Apr-21 06:00N 67°02' E 013°46'612.2
2017-Apr-21 05:30N 67°06' E 013°57'611.9
2017-Apr-21 05:00N 67°11' E 014°04'612.3
2017-Apr-21 04:30N 67°16' E 014°13'612.5
2017-Apr-21 04:00N 67°21' E 014°22'612.7
2017-Apr-21 03:30N 67°27' E 014°28'713.3
2017-Apr-21 03:00N 67°33' E 014°21'713.6
2017-Apr-21 02:30N 67°39' E 014°11'612.2
2017-Apr-21 02:00N 67°45' E 014°06'611.3
2017-Apr-21 01:30N 67°50' E 014°01'611.0
2017-Apr-21 01:00N 67°56' E 013°57'510.6
2017-Apr-21 00:30N 68°01' E 013°53'510.5
2017-Apr-21 00:00N 68°06' E 013°50'1 2.7
2017-Apr-20 23:30N 68°07' E 013°50'0 0.0
2017-Apr-20 23:00N 68°07' E 013°50'0 0.0
2017-Apr-20 22:30N 68°07' E 013°50'0 0.0
2017-Apr-20 22:00N 68°07' E 013°50'0 0.0
2017-Apr-20 21:29N 68°07' E 013°50'0 0.7
2017-Apr-20 21:00N 68°07' E 013°50'2 3.0
2017-Apr-20 20:30N 68°06' E 013°54'2 3.2
2017-Apr-20 20:00N 68°07' E 013°50'0 0.3
2017-Apr-20 19:30N 68°07' E 013°50'1 1.4
2017-Apr-20 19:00N 68°06' E 013°50'510.9
2017-Apr-20 18:30N 68°09' E 014°04'611.5
2017-Apr-20 18:00N 68°14' E 014°10'611.8
2017-Apr-20 17:29N 68°19' E 014°17'612.3
2017-Apr-20 17:00N 68°25' E 014°23'612.0
2017-Apr-20 16:30N 68°28' E 014°37'5 9.1
2017-Apr-20 16:00N 68°30' E 014°48'0 0.1
2017-Apr-20 15:30N 68°30' E 014°48'0 0.0
2017-Apr-20 15:00N 68°30' E 014°48'0 0.0
2017-Apr-20 14:29N 68°30' E 014°48'0 0.0
2017-Apr-20 13:30N 68°30' E 014°48'0 0.0
2017-Apr-20 13:00N 68°30' E 014°48'4 7.5
2017-Apr-20 12:30N 68°30' E 014°58'713.2
2017-Apr-20 12:00N 68°35' E 015°11'612.8
2017-Apr-20 11:30N 68°39' E 015°24'3 6.1
2017-Apr-20 11:00N 68°42' E 015°25'0 0.0
2017-Apr-20 10:30N 68°42' E 015°25'0 0.0
2017-Apr-20 10:00N 68°42' E 015°25'0 0.0
2017-Apr-20 09:29N 68°42' E 015°25'0 0.7
2017-Apr-20 09:00N 68°42' E 015°26'3 5.6
2017-Apr-20 08:30N 68°44' E 015°31'0 0.0
2017-Apr-20 08:00N 68°44' E 015°31'0 0.0
2017-Apr-20 07:29N 68°44' E 015°31'0 0.9
2017-Apr-20 07:00N 68°44' E 015°30'611.8
2017-Apr-20 06:30N 68°50' E 015°28'713.6
2017-Apr-20 06:00N 68°56' E 015°36'4 8.6
2017-Apr-20 05:30N 68°59' E 015°45'713.6
2017-Apr-20 05:00N 68°58' E 016°04'714.2
2017-Apr-20 04:30N 68°54' E 016°21'612.4
2017-Apr-20 04:00N 68°53' E 016°39'613.1
2017-Apr-20 03:30N 68°57' E 016°53'612.6
2017-Apr-20 03:00N 68°59' E 017°09'713.1
2017-Apr-20 02:30N 69°04' E 017°22'714.0
2017-Apr-20 02:00N 69°08' E 017°38'714.0
2017-Apr-20 01:30N 69°10' E 017°57'510.3
2017-Apr-20 01:00N 69°15' E 017°58'612.2
2017-Apr-20 00:30N 69°21' E 018°05'3 6.5
2017-Apr-19 23:59N 69°24' E 018°09'0 0.0
2017-Apr-19 23:30N 69°24' E 018°09'3 6.0
2017-Apr-19 23:00N 69°27' E 018°07'612.4
2017-Apr-19 22:30N 69°30' E 018°21'714.3
2017-Apr-19 22:00N 69°33' E 018°40'713.6
2017-Apr-19 21:30N 69°37' E 018°55'2 4.8
2017-Apr-19 21:00N 69°39' E 018°58'0 0.0
2017-Apr-19 20:30N 69°39' E 018°58'0 0.0
2017-Apr-19 20:00N 69°39' E 018°58'0 0.0
2017-Apr-19 19:30N 69°39' E 018°58'0 0.0
2017-Apr-19 19:00N 69°39' E 018°58'0 0.0
2017-Apr-19 18:30N 69°39' E 018°58'0 0.0
2017-Apr-19 18:00N 69°39' E 018°58'0 0.5
2017-Apr-19 17:30N 69°40' E 018°59'0 0.2
2017-Apr-19 17:00N 69°39' E 018°59'0 0.4
2017-Apr-19 16:30N 69°40' E 018°58'0 0.0
2017-Apr-19 16:00N 69°40' E 018°58'0 0.0
2017-Apr-19 15:30N 69°40' E 018°58'0 0.0
2017-Apr-19 15:00N 69°40' E 018°58'1 1.4
2017-Apr-19 14:30N 69°39' E 018°58'1 1.2
2017-Apr-19 13:30N 69°38' E 018°57'0 0.1
2017-Apr-19 13:00N 69°38' E 018°57'0 0.0
2017-Apr-19 12:30N 69°38' E 018°57'0 0.0
2017-Apr-19 12:00N 69°38' E 018°57'0 0.0
2017-Apr-19 11:30N 69°38' E 018°57'0 0.0
2017-Apr-19 11:00N 69°38' E 018°57'0 0.0
2017-Apr-19 10:30N 69°38' E 018°57'0 0.0
2017-Apr-19 10:00N 69°38' E 018°57'0 0.0
2017-Apr-19 09:30N 69°38' E 018°57'0 0.1
2017-Apr-19 09:00N 69°38' E 018°57'0 0.0
2017-Apr-19 08:30N 69°38' E 018°57'0 0.0
2017-Apr-19 08:00N 69°38' E 018°57'0 0.0
2017-Apr-19 07:30N 69°38' E 018°57'0 0.0
2017-Apr-19 07:00N 69°38' E 018°57'0 0.0
2017-Apr-19 06:29N 69°38' E 018°57'0 0.0
2017-Apr-19 05:59N 69°38' E 018°57'1 1.3
2017-Apr-19 05:30N 69°38' E 018°57'612.4
2017-Apr-19 05:00N 69°44' E 019°03'612.8
2017-Apr-19 04:30N 69°48' E 019°19'713.9
2017-Apr-19 04:00N 69°50' E 019°37'713.8
2017-Apr-19 03:30N 69°54' E 019°54'714.1
2017-Apr-19 03:00N 69°58' E 020°10'713.2
2017-Apr-19 02:30N 70°01' E 020°29'713.5
2017-Apr-19 02:00N 70°03' E 020°48'613.3
2017-Apr-19 01:30N 70°08' E 021°00'714.0
2017-Apr-19 01:00N 70°14' E 021°09'713.2
2017-Apr-19 00:30N 70°18' E 021°25'713.8
2017-Apr-19 00:00N 70°23' E 021°39'611.9
2017-Apr-18 23:30N 70°25' E 021°55'612.4
2017-Apr-18 23:00N 70°27' E 022°13'612.9
2017-Apr-18 22:30N 70°28' E 022°32'713.8
2017-Apr-18 22:00N 70°30' E 022°52'713.5
2017-Apr-18 21:30N 70°34' E 023°07'713.7
2017-Apr-18 21:00N 70°39' E 023°22'713.7
2017-Apr-18 20:30N 70°44' E 023°36'713.3
2017-Apr-18 20:00N 70°49' E 023°50'613.2
2017-Apr-18 19:30N 70°53' E 024°05'713.1
2017-Apr-18 19:00N 70°58' E 024°20'612.7
2017-Apr-18 18:30N 71°02' E 024°36'612.4
2017-Apr-18 17:59N 70°60' E 024°54'612.9
2017-Apr-18 17:30N 70°59' E 025°13'611.6
2017-Apr-18 17:00N 70°57' E 025°29'611.5
2017-Apr-18 16:30N 70°56' E 025°47'713.7
2017-Apr-18 16:00N 70°58' E 026°07'713.8
2017-Apr-18 15:30N 71°00' E 026°27'713.5
2017-Apr-18 15:00N 71°02' E 026°47'612.9
2017-Apr-18 14:30N 71°05' E 027°05'1312.8
2017-Apr-18 13:30N 71°09' E 027°43'613.0
2017-Apr-18 13:00N 71°08' E 028°03'713.1
2017-Apr-18 12:30N 71°06' E 028°21'713.4
2017-Apr-18 12:00N 71°02' E 028°39'713.5
2017-Apr-18 11:30N 70°59' E 028°57'713.8
2017-Apr-18 11:00N 70°55' E 029°15'713.6
2017-Apr-18 10:30N 70°51' E 029°32'713.7
2017-Apr-18 10:00N 70°47' E 029°49'713.4
2017-Apr-18 09:30N 70°44' E 030°07'713.2
2017-Apr-18 09:00N 70°40' E 030°22'713.4
2017-Apr-18 08:30N 70°35' E 030°37'713.4
2017-Apr-18 08:00N 70°31' E 030°51'713.3
2017-Apr-18 07:30N 70°25' E 031°02'713.7
2017-Apr-18 07:00N 70°18' E 031°06'714.0
2017-Apr-18 06:30N 70°12' E 030°56'714.6
2017-Apr-18 06:00N 70°07' E 030°42'714.7
2017-Apr-18 05:30N 70°01' E 030°28'814.9
2017-Apr-18 05:00N 69°55' E 030°14'714.7
2017-Apr-18 04:31N 69°49' E 030°06'5 9.9
2017-Apr-18 04:00N 69°44' E 030°04'0 0.0
2017-Apr-18 03:30N 69°44' E 030°04'0 0.0
2017-Apr-18 03:00N 69°44' E 030°04'0 0.0
2017-Apr-18 02:30N 69°44' E 030°04'0 0.0
2017-Apr-18 02:00N 69°44' E 030°04'0 0.0
2017-Apr-18 01:30N 69°44' E 030°04'0 0.0
2017-Apr-18 01:00N 69°44' E 030°04'0 0.0
2017-Apr-18 00:30N 69°44' E 030°04'0 0.0
2017-Apr-18 00:00N 69°44' E 030°04'0 0.0
2017-Apr-17 23:31N 69°44' E 030°04'0 0.0
2017-Apr-17 23:01N 69°44' E 030°04'0 0.0
2017-Apr-17 22:30N 69°44' E 030°04'0 0.0
2017-Apr-17 22:01N 69°44' E 030°04'4 7.1
2017-Apr-17 21:30N 69°47' E 030°06'713.5
2017-Apr-17 21:00N 69°54' E 030°11'714.4
2017-Apr-17 20:30N 69°60' E 030°24'714.5
2017-Apr-17 20:00N 70°05' E 030°37'714.5
2017-Apr-17 19:30N 70°11' E 030°50'714.6
2017-Apr-17 19:00N 70°16' E 031°04'510.7
2017-Apr-17 18:30N 70°22' E 031°02'0 0.0
2017-Apr-17 18:00N 70°22' E 031°02'0 0.1
2017-Apr-17 17:30N 70°22' E 031°02'4 7.3
2017-Apr-17 17:00N 70°25' E 031°01'714.5
2017-Apr-17 16:30N 70°31' E 030°47'714.6
2017-Apr-17 16:00N 70°36' E 030°31'714.4
2017-Apr-17 15:30N 70°41' E 030°16'713.1
2017-Apr-17 15:00N 70°43' E 029°57'7 6.6
2017-Apr-17 14:00N 70°38' E 029°43'0 0.0
2017-Apr-17 13:30N 70°38' E 029°43'0 0.0
2017-Apr-17 12:59N 70°38' E 029°43'0 0.0
2017-Apr-17 12:30N 70°38' E 029°43'0 0.0
2017-Apr-17 12:00N 70°38' E 029°43'0 0.0
2017-Apr-17 11:30N 70°38' E 029°43'0 0.0
2017-Apr-17 11:00N 70°38' E 029°43'0 0.0
2017-Apr-17 10:29N 70°38' E 029°43'0 0.0
2017-Apr-17 09:59N 70°38' E 029°43'0 0.0
2017-Apr-17 09:28N 70°38' E 029°43'0 0.0
2017-Apr-17 09:00N 70°38' E 029°43'0 0.0
2017-Apr-17 08:29N 70°38' E 029°43'0 0.0
2017-Apr-17 08:00N 70°38' E 029°43'0 0.0
2017-Apr-17 07:30N 70°38' E 029°43'0 0.0
2017-Apr-17 07:00N 70°38' E 029°43'0 0.0
2017-Apr-17 06:30N 70°38' E 029°43'0 0.0
2017-Apr-17 06:00N 70°38' E 029°43'0 0.0
2017-Apr-17 05:30N 70°38' E 029°43'0 0.0
2017-Apr-17 04:59N 70°38' E 029°43'0 0.0
2017-Apr-17 04:30N 70°38' E 029°43'0 0.0
2017-Apr-17 04:00N 70°38' E 029°43'0 0.0
2017-Apr-17 03:30N 70°38' E 029°43'0 0.0
2017-Apr-17 02:59N 70°38' E 029°43'0 0.0
2017-Apr-17 02:30N 70°38' E 029°43'0 0.0
2017-Apr-17 02:00N 70°38' E 029°43'0 0.0
2017-Apr-17 01:29N 70°38' E 029°43'0 0.0
2017-Apr-17 01:00N 70°38' E 029°43'0 0.0
2017-Apr-17 00:29N 70°38' E 029°43'0 0.0
2017-Apr-16 23:59N 70°38' E 029°43'0 0.0
2017-Apr-16 23:30N 70°38' E 029°43'0 0.0
2017-Apr-16 22:59N 70°38' E 029°43'0 0.0
2017-Apr-16 22:29N 70°38' E 029°43'0 0.0
2017-Apr-16 22:00N 70°38' E 029°43'0 0.0
2017-Apr-16 21:30N 70°38' E 029°43'2 3.5
2017-Apr-16 21:00N 70°39' E 029°47'713.2
2017-Apr-16 20:30N 70°45' E 029°43'815.5
2017-Apr-16 20:00N 70°50' E 029°24'815.5
2017-Apr-16 19:30N 70°55' E 029°05'815.2
2017-Apr-16 19:00N 70°59' E 028°47'815.5
2017-Apr-16 18:30N 71°04' E 028°28'815.3
2017-Apr-16 18:00N 71°08' E 028°07'815.5
2017-Apr-16 17:30N 71°08' E 027°43'815.5
2017-Apr-16 17:00N 71°06' E 027°21'815.2
2017-Apr-16 16:30N 71°04' E 026°59'815.0
2017-Apr-16 16:00N 71°01' E 026°37'714.8
2017-Apr-16 15:30N 70°59' E 026°15'815.0
2017-Apr-16 15:00N 70°57' E 025°53'714.9
2017-Apr-16 14:30N 70°56' E 025°30'1515.0
2017-Apr-16 13:30N 71°01' E 024°46'613.1
2017-Apr-16 13:00N 70°60' E 024°26'714.5
2017-Apr-16 12:30N 70°55' E 024°10'714.6
2017-Apr-16 12:00N 70°50' E 023°53'714.6
2017-Apr-16 11:30N 70°45' E 023°38'714.0
2017-Apr-16 11:00N 70°38' E 023°35'1 2.3
2017-Apr-16 10:30N 70°38' E 023°39'0 0.0
2017-Apr-16 09:59N 70°38' E 023°39'  

Dump ship's entire track history